sensor_id;sensor_type;location;lat;lon;timestamp;pressure;altitude;pressure_sealevel;temperature;humidity
58295;BME280;45705;55.592;37.460;2023-04-08T00:01:54;100202.16;;;3.60;46.79
58295;BME280;45705;55.592;37.460;2023-04-08T00:04:20;100205.31;;;3.57;46.96
58295;BME280;45705;55.592;37.460;2023-04-08T00:06:45;100208.00;;;3.57;47.02
58295;BME280;45705;55.592;37.460;2023-04-08T00:09:11;100206.84;;;3.52;47.23
58295;BME280;45705;55.592;37.460;2023-04-08T00:11:37;100211.53;;;3.45;47.40
58295;BME280;45705;55.592;37.460;2023-04-08T00:14:03;100212.47;;;3.51;47.46
58295;BME280;45705;55.592;37.460;2023-04-08T00:16:29;100208.50;;;3.42;47.71
58295;BME280;45705;55.592;37.460;2023-04-08T00:18:55;100206.97;;;3.46;47.77
58295;BME280;45705;55.592;37.460;2023-04-08T00:21:21;100206.03;;;3.40;48.17
58295;BME280;45705;55.592;37.460;2023-04-08T00:23:48;100199.72;;;3.46;48.27
58295;BME280;45705;55.592;37.460;2023-04-08T00:26:14;100207.06;;;3.39;48.55
58295;BME280;45705;55.592;37.460;2023-04-08T00:28:41;100198.44;;;3.37;48.81
58295;BME280;45705;55.592;37.460;2023-04-08T00:31:08;100206.75;;;3.35;48.83
58295;BME280;45705;55.592;37.460;2023-04-08T00:33:33;100206.41;;;3.32;49.20
58295;BME280;45705;55.592;37.460;2023-04-08T00:35:59;100205.25;;;3.28;49.29
58295;BME280;45705;55.592;37.460;2023-04-08T00:38:25;100205.25;;;3.28;49.39
58295;BME280;45705;55.592;37.460;2023-04-08T00:40:51;100198.34;;;3.20;49.71
58295;BME280;45705;55.592;37.460;2023-04-08T00:43:16;100200.31;;;3.25;49.73
58295;BME280;45705;55.592;37.460;2023-04-08T00:45:46;100198.66;;;3.24;49.73
58295;BME280;45705;55.592;37.460;2023-04-08T00:48:12;100197.75;;;3.18;50.06
58295;BME280;45705;55.592;37.460;2023-04-08T00:50:38;100204.53;;;3.21;50.15
58295;BME280;45705;55.592;37.460;2023-04-08T00:53:04;100206.16;;;3.22;50.33
58295;BME280;45705;55.592;37.460;2023-04-08T00:55:30;100207.56;;;3.12;50.63
58295;BME280;45705;55.592;37.460;2023-04-08T00:57:56;100203.81;;;3.13;50.42
58295;BME280;45705;55.592;37.460;2023-04-08T01:00:23;100203.94;;;3.19;50.64
58295;BME280;45705;55.592;37.460;2023-04-08T01:03:12;100203.09;;;3.06;50.84
58295;BME280;45705;55.592;37.460;2023-04-08T01:05:55;100202.19;;;3.12;51.04
58295;BME280;45705;55.592;37.460;2023-04-08T01:08:26;100204.75;;;3.07;51.38
58295;BME280;45705;55.592;37.460;2023-04-08T01:10:58;100205.78;;;3.06;51.64
58295;BME280;45705;55.592;37.460;2023-04-08T01:13:28;100201.84;;;2.97;51.70
58295;BME280;45705;55.592;37.460;2023-04-08T01:15:54;100202.88;;;2.96;51.88
58295;BME280;45705;55.592;37.460;2023-04-08T01:18:21;100210.13;;;3.07;52.01
58295;BME280;45705;55.592;37.460;2023-04-08T01:20:49;100192.13;;;2.96;51.85
58295;BME280;45705;55.592;37.460;2023-04-08T01:23:32;100206.84;;;2.93;52.37
58295;BME280;45705;55.592;37.460;2023-04-08T01:26:01;100210.81;;;2.91;52.32
58295;BME280;45705;55.592;37.460;2023-04-08T01:28:29;100213.38;;;2.86;52.84
58295;BME280;45705;55.592;37.460;2023-04-08T01:30:59;100206.94;;;2.87;52.90
58295;BME280;45705;55.592;37.460;2023-04-08T01:33:27;100203.91;;;2.83;53.16
58295;BME280;45705;55.592;37.460;2023-04-08T01:35:55;100196.75;;;2.77;53.25
58295;BME280;45705;55.592;37.460;2023-04-08T01:38:23;100202.63;;;2.86;53.02
58295;BME280;45705;55.592;37.460;2023-04-08T01:40:51;100207.28;;;2.79;53.49
58295;BME280;45705;55.592;37.460;2023-04-08T01:43:18;100213.38;;;2.86;53.65
58295;BME280;45705;55.592;37.460;2023-04-08T01:45:45;100215.47;;;2.84;53.58
58295;BME280;45705;55.592;37.460;2023-04-08T01:48:12;100211.13;;;2.83;53.66
58295;BME280;45705;55.592;37.460;2023-04-08T01:50:40;100211.47;;;2.74;53.98
58295;BME280;45705;55.592;37.460;2023-04-08T01:53:08;100210.19;;;2.77;54.02
58295;BME280;45705;55.592;37.460;2023-04-08T01:55:35;100204.47;;;2.73;54.28
58295;BME280;45705;55.592;37.460;2023-04-08T01:58:04;100206.56;;;2.71;54.41
58295;BME280;45705;55.592;37.460;2023-04-08T02:00:30;100213.34;;;2.74;54.39
58295;BME280;45705;55.592;37.460;2023-04-08T02:02:57;100219.38;;;2.69;54.85
58295;BME280;45705;55.592;37.460;2023-04-08T02:05:23;100209.13;;;2.66;54.97
58295;BME280;45705;55.592;37.460;2023-04-08T02:07:49;100220.31;;;2.63;55.46
58295;BME280;45705;55.592;37.460;2023-04-08T02:10:15;100212.16;;;2.58;55.79
58295;BME280;45705;55.592;37.460;2023-04-08T02:12:41;100213.31;;;2.62;55.51
58295;BME280;45705;55.592;37.460;2023-04-08T02:15:09;100215.44;;;2.60;55.66
58295;BME280;45705;55.592;37.460;2023-04-08T02:17:42;100218.41;;;2.52;55.85
58295;BME280;45705;55.592;37.460;2023-04-08T02:25:15;100218.53;;;2.45;56.26
58295;BME280;45705;55.592;37.460;2023-04-08T02:27:42;100202.53;;;2.39;56.68
58295;BME280;45705;55.592;37.460;2023-04-08T02:30:10;100215.63;;;2.47;56.57
58295;BME280;45705;55.592;37.460;2023-04-08T02:32:37;100208.22;;;2.42;56.98
58295;BME280;45705;55.592;37.460;2023-04-08T02:35:04;100213.59;;;2.42;57.06
58295;BME280;45705;55.592;37.460;2023-04-08T02:37:31;100211.28;;;2.46;56.83
58295;BME280;45705;55.592;37.460;2023-04-08T02:39:58;100214.09;;;2.51;57.20
58295;BME280;45705;55.592;37.460;2023-04-08T02:42:25;100223.31;;;2.43;57.37
58295;BME280;45705;55.592;37.460;2023-04-08T02:44:51;100216.88;;;2.44;57.59
58295;BME280;45705;55.592;37.460;2023-04-08T02:47:17;100212.56;;;2.43;57.68
58295;BME280;45705;55.592;37.460;2023-04-08T02:49:43;100215.84;;;2.45;57.73
58295;BME280;45705;55.592;37.460;2023-04-08T02:52:09;100219.81;;;2.43;57.84
58295;BME280;45705;55.592;37.460;2023-04-08T02:54:34;100219.25;;;2.52;57.61
58295;BME280;45705;55.592;37.460;2023-04-08T02:57:00;100223.53;;;2.42;58.09
58295;BME280;45705;55.592;37.460;2023-04-08T02:59:26;100216.66;;;2.46;57.91
58295;BME280;45705;55.592;37.460;2023-04-08T03:01:52;100222.16;;;2.51;57.67
58295;BME280;45705;55.592;37.460;2023-04-08T03:04:17;100224.84;;;2.51;57.94
58295;BME280;45705;55.592;37.460;2023-04-08T03:06:43;100231.25;;;2.50;57.94
58295;BME280;45705;55.592;37.460;2023-04-08T03:09:09;100220.97;;;2.47;58.27
58295;BME280;45705;55.592;37.460;2023-04-08T03:11:34;100220.16;;;2.46;58.33
58295;BME280;45705;55.592;37.460;2023-04-08T03:14:00;100225.78;;;2.56;57.86
58295;BME280;45705;55.592;37.460;2023-04-08T03:16:26;100232.59;;;2.71;57.60
58295;BME280;45705;55.592;37.460;2023-04-08T03:18:51;100236.72;;;2.73;57.47
58295;BME280;45705;55.592;37.460;2023-04-08T03:21:17;100229.94;;;2.83;57.07
58295;BME280;45705;55.592;37.460;2023-04-08T03:23:43;100236.03;;;2.90;56.89
58295;BME280;45705;55.592;37.460;2023-04-08T03:26:09;100231.59;;;2.84;56.92
58295;BME280;45705;55.592;37.460;2023-04-08T03:28:35;100229.16;;;2.94;56.75
58295;BME280;45705;55.592;37.460;2023-04-08T03:31:02;100215.38;;;3.02;56.20
58295;BME280;45705;55.592;37.460;2023-04-08T03:33:28;100229.16;;;3.18;55.83
58295;BME280;45705;55.592;37.460;2023-04-08T03:35:54;100221.09;;;3.18;55.82
58295;BME280;45705;55.592;37.460;2023-04-08T03:38:20;100232.69;;;3.30;55.34
58295;BME280;45705;55.592;37.460;2023-04-08T03:40:46;100236.91;;;3.38;55.15
58295;BME280;45705;55.592;37.460;2023-04-08T03:43:12;100226.09;;;3.85;53.66
58295;BME280;45705;55.592;37.460;2023-04-08T03:45:38;100219.34;;;5.36;48.84
58295;BME280;45705;55.592;37.460;2023-04-08T03:48:04;100214.28;;;6.50;45.08
58295;BME280;45705;55.592;37.460;2023-04-08T03:50:29;100216.56;;;7.28;42.50
58295;BME280;45705;55.592;37.460;2023-04-08T03:52:55;100211.84;;;7.51;41.52
58295;BME280;45705;55.592;37.460;2023-04-08T03:55:21;100206.25;;;8.41;39.55
58295;BME280;45705;55.592;37.460;2023-04-08T03:57:46;100205.50;;;8.66;38.88
58295;BME280;45705;55.592;37.460;2023-04-08T04:00:12;100206.88;;;8.94;38.43
58295;BME280;45705;55.592;37.460;2023-04-08T04:02:38;100218.28;;;9.12;37.98
58295;BME280;45705;55.592;37.460;2023-04-08T04:05:04;100205.09;;;9.80;36.39
58295;BME280;45705;55.592;37.460;2023-04-08T04:07:30;100207.97;;;10.64;35.35
58295;BME280;45705;55.592;37.460;2023-04-08T04:09:56;100222.34;;;10.70;34.88
58295;BME280;45705;55.592;37.460;2023-04-08T04:12:24;100212.03;;;11.01;34.20
58295;BME280;45705;55.592;37.460;2023-04-08T04:14:51;100219.59;;;11.10;34.35
58295;BME280;45705;55.592;37.460;2023-04-08T04:17:17;100214.69;;;11.07;34.17
58295;BME280;45705;55.592;37.460;2023-04-08T04:19:43;100213.88;;;11.40;33.59
58295;BME280;45705;55.592;37.460;2023-04-08T04:22:08;100216.97;;;12.06;32.39
58295;BME280;45705;55.592;37.460;2023-04-08T04:24:34;100208.09;;;13.09;31.08
58295;BME280;45705;55.592;37.460;2023-04-08T04:27:00;100214.06;;;12.40;31.82
58295;BME280;45705;55.592;37.460;2023-04-08T04:29:25;100214.22;;;12.68;31.04
58295;BME280;45705;55.592;37.460;2023-04-08T04:31:51;100205.88;;;13.11;31.00
58295;BME280;45705;55.592;37.460;2023-04-08T04:34:17;100210.44;;;13.16;30.16
58295;BME280;45705;55.592;37.460;2023-04-08T04:36:42;100212.75;;;13.09;30.62
58295;BME280;45705;55.592;37.460;2023-04-08T04:39:08;100211.03;;;14.15;29.21
58295;BME280;45705;55.592;37.460;2023-04-08T04:41:34;100214.69;;;14.10;28.86
58295;BME280;45705;55.592;37.460;2023-04-08T04:44:03;100211.78;;;14.57;28.93
58295;BME280;45705;55.592;37.460;2023-04-08T04:46:29;100208.41;;;14.24;28.82
58295;BME280;45705;55.592;37.460;2023-04-08T04:48:55;100223.31;;;13.62;29.65
58295;BME280;45705;55.592;37.460;2023-04-08T04:51:24;100224.41;;;14.16;29.09
58295;BME280;45705;55.592;37.460;2023-04-08T04:53:51;100228.28;;;14.15;29.15
58295;BME280;45705;55.592;37.460;2023-04-08T04:56:20;100230.50;;;13.99;29.28
58295;BME280;45705;55.592;37.460;2023-04-08T04:58:46;100237.59;;;13.73;29.45
58295;BME280;45705;55.592;37.460;2023-04-08T05:01:12;100226.69;;;15.10;28.28
58295;BME280;45705;55.592;37.460;2023-04-08T05:03:37;100219.97;;;15.16;28.07
58295;BME280;45705;55.592;37.460;2023-04-08T05:06:03;100229.78;;;15.17;27.68
58295;BME280;45705;55.592;37.460;2023-04-08T05:08:29;100222.63;;;14.85;28.46
58295;BME280;45705;55.592;37.460;2023-04-08T05:10:54;100221.03;;;16.00;27.04
58295;BME280;45705;55.592;37.460;2023-04-08T05:13:20;100224.84;;;16.65;25.98
58295;BME280;45705;55.592;37.460;2023-04-08T05:15:46;100240.53;;;15.59;27.19
58295;BME280;45705;55.592;37.460;2023-04-08T05:18:12;100232.28;;;15.27;27.64
58295;BME280;45705;55.592;37.460;2023-04-08T05:20:38;100235.56;;;15.69;26.92
58295;BME280;45705;55.592;37.460;2023-04-08T05:23:04;100232.44;;;15.62;26.97
58295;BME280;45705;55.592;37.460;2023-04-08T05:25:30;100233.53;;;16.41;26.45
58295;BME280;45705;55.592;37.460;2023-04-08T05:27:56;100236.00;;;17.04;25.74
58295;BME280;45705;55.592;37.460;2023-04-08T05:30:22;100240.03;;;16.63;26.21
58295;BME280;45705;55.592;37.460;2023-04-08T05:32:47;100250.94;;;16.28;26.31
58295;BME280;45705;55.592;37.460;2023-04-08T05:35:13;100253.09;;;16.48;26.70
58295;BME280;45705;55.592;37.460;2023-04-08T05:37:39;100243.09;;;17.22;25.46
58295;BME280;45705;55.592;37.460;2023-04-08T05:40:05;100253.91;;;16.49;26.10
58295;BME280;45705;55.592;37.460;2023-04-08T05:42:31;100255.22;;;17.04;25.65
58295;BME280;45705;55.592;37.460;2023-04-08T05:44:57;100249.16;;;16.23;26.62
58295;BME280;45705;55.592;37.460;2023-04-08T05:47:23;100237.78;;;19.50;23.76
58295;BME280;45705;55.592;37.460;2023-04-08T05:49:48;100244.81;;;18.30;24.10
58295;BME280;45705;55.592;37.460;2023-04-08T05:52:14;100248.28;;;17.80;24.57
58295;BME280;45705;55.592;37.460;2023-04-08T05:54:43;100246.38;;;18.40;24.10
58295;BME280;45705;55.592;37.460;2023-04-08T05:57:09;100252.44;;;18.75;23.59
58295;BME280;45705;55.592;37.460;2023-04-08T05:59:34;100243.28;;;18.62;23.96
58295;BME280;45705;55.592;37.460;2023-04-08T06:02:00;100247.56;;;18.30;24.39
58295;BME280;45705;55.592;37.460;2023-04-08T06:04:26;100248.69;;;18.29;24.65
58295;BME280;45705;55.592;37.460;2023-04-08T06:06:52;100249.47;;;17.61;24.72
58295;BME280;45705;55.592;37.460;2023-04-08T06:09:18;100248.28;;;17.80;24.70
58295;BME280;45705;55.592;37.460;2023-04-08T06:11:44;100230.19;;;18.59;24.17
58295;BME280;45705;55.592;37.460;2023-04-08T06:15:40;100239.34;;;17.36;25.33
58295;BME280;45705;55.592;37.460;2023-04-08T06:18:07;100243.81;;;17.58;24.97
58295;BME280;45705;55.592;37.460;2023-04-08T06:20:32;100233.16;;;18.75;23.95
58295;BME280;45705;55.592;37.460;2023-04-08T06:22:58;100241.78;;;17.76;24.83
58295;BME280;45705;55.592;37.460;2023-04-08T06:25:24;100236.97;;;17.25;25.38
58295;BME280;45705;55.592;37.460;2023-04-08T06:27:49;100251.66;;;17.29;25.60
58295;BME280;45705;55.592;37.460;2023-04-08T06:30:15;100240.97;;;18.43;24.43
58295;BME280;45705;55.592;37.460;2023-04-08T06:32:41;100239.56;;;19.21;23.46
58295;BME280;45705;55.592;37.460;2023-04-08T06:35:07;100226.72;;;19.38;23.11
58295;BME280;45705;55.592;37.460;2023-04-08T06:37:33;100237.63;;;20.29;22.25
58295;BME280;45705;55.592;37.460;2023-04-08T06:40:04;100231.16;;;20.50;21.86
58295;BME280;45705;55.592;37.460;2023-04-08T06:42:30;100241.34;;;20.74;21.78
58295;BME280;45705;55.592;37.460;2023-04-08T06:45:14;100237.03;;;19.16;22.70
58295;BME280;45705;55.592;37.460;2023-04-08T06:47:40;100246.28;;;18.27;23.75
58295;BME280;45705;55.592;37.460;2023-04-08T06:50:06;100260.53;;;16.48;25.94
58295;BME280;45705;55.592;37.460;2023-04-08T06:52:32;100258.47;;;17.06;25.99
58295;BME280;45705;55.592;37.460;2023-04-08T06:54:58;100240.25;;;18.76;24.43
58295;BME280;45705;55.592;37.460;2023-04-08T06:57:24;100245.75;;;18.34;24.63
58295;BME280;45705;55.592;37.460;2023-04-08T06:59:51;100238.69;;;19.42;24.15
58295;BME280;45705;55.592;37.460;2023-04-08T07:02:18;100232.06;;;19.55;23.36
58295;BME280;45705;55.592;37.460;2023-04-08T07:04:43;100254.69;;;18.01;24.86
58295;BME280;45705;55.592;37.460;2023-04-08T07:07:09;100250.41;;;17.65;25.56
58295;BME280;45705;55.592;37.460;2023-04-08T07:09:35;100255.56;;;16.93;26.08
58295;BME280;45705;55.592;37.460;2023-04-08T07:12:02;100247.47;;;17.06;26.12
58295;BME280;45705;55.592;37.460;2023-04-08T07:14:28;100237.81;;;17.64;25.65
58295;BME280;45705;55.592;37.460;2023-04-08T07:16:54;100231.31;;;16.78;26.47
58295;BME280;45705;55.592;37.460;2023-04-08T07:19:21;100243.56;;;16.54;26.78
58295;BME280;45705;55.592;37.460;2023-04-08T07:21:48;100237.81;;;16.91;26.91
58295;BME280;45705;55.592;37.460;2023-04-08T07:24:14;100244.19;;;17.39;26.21
58295;BME280;45705;55.592;37.460;2023-04-08T07:26:40;100247.41;;;16.36;27.17
58295;BME280;45705;55.592;37.460;2023-04-08T07:29:06;100243.16;;;16.12;27.73
58295;BME280;45705;55.592;37.460;2023-04-08T07:31:32;100245.19;;;15.58;28.19
58295;BME280;45705;55.592;37.460;2023-04-08T07:33:58;100245.53;;;15.65;28.29
58295;BME280;45705;55.592;37.460;2023-04-08T07:36:23;100246.03;;;14.54;30.01
58295;BME280;45705;55.592;37.460;2023-04-08T07:38:49;100225.81;;;14.78;29.44
58295;BME280;45705;55.592;37.460;2023-04-08T07:41:16;100240.88;;;15.34;29.08
58295;BME280;45705;55.592;37.460;2023-04-08T07:43:41;100242.63;;;14.35;30.53
58295;BME280;45705;55.592;37.460;2023-04-08T07:46:07;100248.94;;;13.94;30.66
58295;BME280;45705;55.592;37.460;2023-04-08T07:48:34;100246.00;;;14.04;31.00
58295;BME280;45705;55.592;37.460;2023-04-08T07:51:04;100243.28;;;13.90;31.32
58295;BME280;45705;55.592;37.460;2023-04-08T07:53:31;100257.19;;;12.38;32.57
58295;BME280;45705;55.592;37.460;2023-04-08T07:55:57;100258.84;;;11.91;33.67
58295;BME280;45705;55.592;37.460;2023-04-08T07:58:23;100261.50;;;12.20;33.94
58295;BME280;45705;55.592;37.460;2023-04-08T08:00:49;100234.66;;;12.09;34.24
58295;BME280;45705;55.592;37.460;2023-04-08T08:03:16;100253.06;;;12.79;33.20
58295;BME280;45705;55.592;37.460;2023-04-08T08:05:42;100261.44;;;12.01;34.73
58295;BME280;45705;55.592;37.460;2023-04-08T08:08:08;100250.56;;;11.72;34.19
58295;BME280;45705;55.592;37.460;2023-04-08T08:10:37;100257.59;;;11.20;35.22
58295;BME280;45705;55.592;37.460;2023-04-08T08:13:03;100250.03;;;11.46;35.65
58295;BME280;45705;55.592;37.460;2023-04-08T08:15:30;100250.44;;;11.29;35.85
58295;BME280;45705;55.592;37.460;2023-04-08T08:17:55;100241.19;;;10.96;35.85
58295;BME280;45705;55.592;37.460;2023-04-08T08:20:21;100251.41;;;10.75;37.00
58295;BME280;45705;55.592;37.460;2023-04-08T08:22:47;100242.97;;;11.11;36.08
58295;BME280;45705;55.592;37.460;2023-04-08T08:25:12;100252.34;;;10.99;36.50
58295;BME280;45705;55.592;37.460;2023-04-08T08:27:38;100244.19;;;10.94;35.87
58295;BME280;45705;55.592;37.460;2023-04-08T08:30:07;100251.25;;;10.56;36.36
58295;BME280;45705;55.592;37.460;2023-04-08T08:32:34;100256.50;;;10.42;35.80
58295;BME280;45705;55.592;37.460;2023-04-08T08:35:00;100238.41;;;10.67;36.29
58295;BME280;45705;55.592;37.460;2023-04-08T08:37:26;100254.41;;;10.18;36.24
58295;BME280;45705;55.592;37.460;2023-04-08T08:39:52;100254.47;;;10.08;36.72
58295;BME280;45705;55.592;37.460;2023-04-08T08:42:22;100240.97;;;10.53;36.50
58295;BME280;45705;55.592;37.460;2023-04-08T08:44:48;100234.91;;;10.61;36.83
58295;BME280;45705;55.592;37.460;2023-04-08T08:47:15;100234.47;;;10.88;36.61
58295;BME280;45705;55.592;37.460;2023-04-08T08:49:42;100233.16;;;10.36;34.87
58295;BME280;45705;55.592;37.460;2023-04-08T08:52:07;100247.31;;;10.22;35.01
58295;BME280;45705;55.592;37.460;2023-04-08T08:54:34;100233.19;;;10.25;36.42
58295;BME280;45705;55.592;37.460;2023-04-08T08:57:00;100228.75;;;10.45;36.39
58295;BME280;45705;55.592;37.460;2023-04-08T08:59:26;100227.09;;;10.49;35.60
58295;BME280;45705;55.592;37.460;2023-04-08T09:01:51;100229.66;;;10.30;37.21
58295;BME280;45705;55.592;37.460;2023-04-08T09:04:21;100229.91;;;10.34;36.55
58295;BME280;45705;55.592;37.460;2023-04-08T09:06:49;100233.16;;;10.36;36.63
58295;BME280;45705;55.592;37.460;2023-04-08T09:09:16;100229.34;;;10.27;36.85
58295;BME280;45705;55.592;37.460;2023-04-08T09:11:44;100219.59;;;10.31;37.31
58295;BME280;45705;55.592;37.460;2023-04-08T09:14:36;100233.94;;;10.81;36.99
58295;BME280;45705;55.592;37.460;2023-04-08T09:17:02;100235.19;;;10.59;36.72
58295;BME280;45705;55.592;37.460;2023-04-08T09:19:27;100227.88;;;10.94;36.79
58295;BME280;45705;55.592;37.460;2023-04-08T09:22:09;100235.78;;;10.51;36.57
58295;BME280;45705;55.592;37.460;2023-04-08T09:24:36;100232.50;;;10.54;36.44
58295;BME280;45705;55.592;37.460;2023-04-08T09:27:03;100216.03;;;10.80;36.27
58295;BME280;45705;55.592;37.460;2023-04-08T09:29:29;100224.38;;;10.49;36.70
58295;BME280;45705;55.592;37.460;2023-04-08T09:31:59;100217.72;;;10.71;36.85
58295;BME280;45705;55.592;37.460;2023-04-08T09:34:26;100224.13;;;10.85;36.83
58295;BME280;45705;55.592;37.460;2023-04-08T09:36:53;100232.09;;;10.21;37.64
58295;BME280;45705;55.592;37.460;2023-04-08T09:39:19;100230.28;;;10.61;37.27
58295;BME280;45705;55.592;37.460;2023-04-08T09:41:48;100216.47;;;10.92;37.11
58295;BME280;45705;55.592;37.460;2023-04-08T09:44:15;100218.16;;;10.43;37.49
58295;BME280;45705;55.592;37.460;2023-04-08T09:52:19;100232.09;;;10.32;37.29
58295;BME280;45705;55.592;37.460;2023-04-08T09:55:07;100214.19;;;10.70;37.10
58295;BME280;45705;55.592;37.460;2023-04-08T09:57:39;100223.38;;;11.09;36.70
58295;BME280;45705;55.592;37.460;2023-04-08T10:00:14;100215.72;;;11.45;35.85
58295;BME280;45705;55.592;37.460;2023-04-08T10:05:29;100205.53;;;11.80;34.86
58295;BME280;45705;55.592;37.460;2023-04-08T10:07:56;100211.03;;;11.51;34.71
58295;BME280;45705;55.592;37.460;2023-04-08T10:10:23;100209.41;;;11.50;34.92
58295;BME280;45705;55.592;37.460;2023-04-08T10:12:49;100213.09;;;11.06;36.43
58295;BME280;45705;55.592;37.460;2023-04-08T10:15:32;100207.00;;;11.19;36.88
58295;BME280;45705;55.592;37.460;2023-04-08T10:22:59;100207.63;;;10.76;37.58
58295;BME280;45705;55.592;37.460;2023-04-08T10:30:48;100191.41;;;11.54;35.65
58295;BME280;45705;55.592;37.460;2023-04-08T10:35:45;100202.97;;;11.40;32.66
58295;BME280;45705;55.592;37.460;2023-04-08T10:38:13;100195.69;;;11.60;32.02
58295;BME280;45705;55.592;37.460;2023-04-08T10:40:39;100185.03;;;11.63;32.66
58295;BME280;45705;55.592;37.460;2023-04-08T10:43:09;100189.78;;;11.77;33.63
58295;BME280;45705;55.592;37.460;2023-04-08T10:45:36;100191.31;;;11.59;34.15
58295;BME280;45705;55.592;37.460;2023-04-08T10:48:21;100177.00;;;11.72;34.06
58295;BME280;45705;55.592;37.460;2023-04-08T10:50:58;100178.41;;;11.70;34.88
58295;BME280;45705;55.592;37.460;2023-04-08T10:53:29;100184.03;;;11.54;35.33
58295;BME280;45705;55.592;37.460;2023-04-08T10:56:12;100178.75;;;11.63;35.20
58295;BME280;45705;55.592;37.460;2023-04-08T10:58:51;100176.81;;;11.88;34.45
58295;BME280;45705;55.592;37.460;2023-04-08T11:01:17;100179.88;;;12.29;33.76
58295;BME280;45705;55.592;37.460;2023-04-08T11:03:43;100157.97;;;12.34;33.79
58295;BME280;45705;55.592;37.460;2023-04-08T11:06:09;100173.13;;;12.40;33.84
58295;BME280;45705;55.592;37.460;2023-04-08T11:08:35;100175.31;;;11.76;35.98
58295;BME280;45705;55.592;37.460;2023-04-08T11:11:03;100184.72;;;11.41;36.86
58295;BME280;45705;55.592;37.460;2023-04-08T11:13:34;100167.50;;;11.94;36.21
58295;BME280;45705;55.592;37.460;2023-04-08T11:16:02;100152.97;;;12.23;36.05
58295;BME280;45705;55.592;37.460;2023-04-08T11:18:34;100152.38;;;12.26;36.50
58295;BME280;45705;55.592;37.460;2023-04-08T11:21:00;100161.38;;;12.45;36.06
58295;BME280;45705;55.592;37.460;2023-04-08T11:23:28;100145.06;;;12.02;36.44
58295;BME280;45705;55.592;37.460;2023-04-08T11:25:54;100160.78;;;12.10;36.62
58295;BME280;45705;55.592;37.460;2023-04-08T11:28:21;100148.75;;;12.11;36.46
58295;BME280;45705;55.592;37.460;2023-04-08T11:30:47;100146.31;;;12.29;36.64
58295;BME280;45705;55.592;37.460;2023-04-08T11:33:13;100151.47;;;12.11;36.80
58295;BME280;45705;55.592;37.460;2023-04-08T11:35:42;100145.50;;;12.09;36.91
58295;BME280;45705;55.592;37.460;2023-04-08T11:38:09;100143.63;;;12.10;37.14
58295;BME280;45705;55.592;37.460;2023-04-08T11:40:36;100145.56;;;12.42;36.80
58295;BME280;45705;55.592;37.460;2023-04-08T11:43:12;100136.88;;;12.21;37.05
58295;BME280;45705;55.592;37.460;2023-04-08T11:45:40;100144.00;;;11.98;37.44
58295;BME280;45705;55.592;37.460;2023-04-08T11:48:10;100145.72;;;11.94;37.78
58295;BME280;45705;55.592;37.460;2023-04-08T11:50:36;100135.63;;;11.94;38.13
58295;BME280;45705;55.592;37.460;2023-04-08T11:53:02;100117.38;;;11.95;37.84
58295;BME280;45705;55.592;37.460;2023-04-08T11:55:29;100131.88;;;12.09;37.54
58295;BME280;45705;55.592;37.460;2023-04-08T11:58:00;100129.38;;;12.32;37.46
58295;BME280;45705;55.592;37.460;2023-04-08T12:00:26;100120.41;;;12.31;37.34
58295;BME280;45705;55.592;37.460;2023-04-08T12:02:52;100121.88;;;12.24;37.41
58295;BME280;45705;55.592;37.460;2023-04-08T12:05:19;100112.16;;;12.17;37.50
58295;BME280;45705;55.592;37.460;2023-04-08T12:07:46;100113.97;;;12.22;37.57
58295;BME280;45705;55.592;37.460;2023-04-08T12:10:12;100121.25;;;12.27;36.75
58295;BME280;45705;55.592;37.460;2023-04-08T12:12:39;100115.06;;;12.40;36.00
58295;BME280;45705;55.592;37.460;2023-04-08T12:15:05;100109.38;;;12.88;35.02
58295;BME280;45705;55.592;37.460;2023-04-08T12:17:33;100116.84;;;12.31;36.51
58295;BME280;45705;55.592;37.460;2023-04-08T12:19:59;100119.66;;;12.45;36.73
58295;BME280;45705;55.592;37.460;2023-04-08T12:22:25;100119.53;;;12.50;36.91
58295;BME280;45705;55.592;37.460;2023-04-08T12:24:51;100110.56;;;12.49;37.25
58295;BME280;45705;55.592;37.460;2023-04-08T12:27:16;100115.38;;;12.19;37.16
58295;BME280;45705;55.592;37.460;2023-04-08T12:29:42;100110.91;;;12.10;37.34
58295;BME280;45705;55.592;37.460;2023-04-08T12:32:08;100106.19;;;11.96;37.29
58295;BME280;45705;55.592;37.460;2023-04-08T12:34:34;100106.31;;;12.24;37.41
58295;BME280;45705;55.592;37.460;2023-04-08T12:36:59;100104.03;;;12.12;37.00
58295;BME280;45705;55.592;37.460;2023-04-08T12:39:25;100108.38;;;12.32;36.91
58295;BME280;45705;55.592;37.460;2023-04-08T12:41:51;100102.16;;;12.46;36.55
58295;BME280;45705;55.592;37.460;2023-04-08T12:44:17;100091.91;;;12.56;36.57
58295;BME280;45705;55.592;37.460;2023-04-08T12:46:43;100090.34;;;12.83;36.14
58295;BME280;45705;55.592;37.460;2023-04-08T12:49:09;100090.72;;;12.63;36.38
58295;BME280;45705;55.592;37.460;2023-04-08T12:51:35;100094.94;;;12.36;36.44
58295;BME280;45705;55.592;37.460;2023-04-08T12:54:01;100082.06;;;12.23;36.87
58295;BME280;45705;55.592;37.460;2023-04-08T12:56:29;100088.47;;;12.32;36.51
58295;BME280;45705;55.592;37.460;2023-04-08T12:58:56;100063.94;;;12.32;36.09
58295;BME280;45705;55.592;37.460;2023-04-08T13:01:22;100075.69;;;12.46;36.45
58295;BME280;45705;55.592;37.460;2023-04-08T13:03:48;100074.91;;;12.59;36.09
58295;BME280;45705;55.592;37.460;2023-04-08T13:06:13;100082.06;;;12.88;35.25
58295;BME280;45705;55.592;37.460;2023-04-08T13:08:40;100084.81;;;12.55;35.74
58295;BME280;45705;55.592;37.460;2023-04-08T13:11:06;100078.13;;;12.48;35.94